Time;durP1;ratioP1;P1;durP2;ratioP2;P2;SDS_P1;SDS_P2;PMS_P1;PMS_P2;Temp;Humidity;BMP_temperature;BMP_pressure;BME280_temperature;BME280_humidity;BME280_pressure;Samples;Min_cycle;Max_cycle;Signal;HPM_P1;HPM_P2
2021/06/24 00:00:38;;;;;;;16.23;6.57;;;;;;;14.94;74.49;101639.31;4839410;29;20057;-73
2021/06/24 00:03:06;;;;;;;14.55;6.95;;;;;;;14.81;74.57;101628.34;4838038;29;20089;-71
2021/06/24 00:05:33;;;;;;;21.30;6.82;;;;;;;15.02;74.02;101629.41;4840071;29;20062;-70
2021/06/24 00:08:01;;;;;;;19.58;7.45;;;;;;;14.96;74.25;101639.03;4839408;29;20054;-70
2021/06/24 00:10:28;;;;;;;15.45;7.10;;;;;;;14.79;74.82;101636.16;4838957;29;20501;-72
2021/06/24 00:12:56;;;;;;;16.05;6.93;;;;;;;15.11;74.31;101625.53;4838627;29;20402;-71
2021/06/24 00:15:24;;;;;;;19.55;7.47;;;;;;;15.00;74.40;101638.06;4837787;29;20053;-71
2021/06/24 00:17:51;;;;;;;22.77;6.93;;;;;;;14.95;74.22;101634.59;4838322;29;20061;-73
2021/06/24 00:20:18;;;;;;;16.60;6.85;;;;;;;15.09;73.74;101633.34;4839829;29;20069;-73
2021/06/24 00:22:46;;;;;;;17.48;7.88;;;;;;;14.96;74.32;101631.50;4840222;29;20054;-70
2021/06/24 00:25:13;;;;;;;21.33;7.03;;;;;;;15.01;74.48;101638.88;4839181;29;20058;-70
2021/06/24 00:32:09;;;;;;;19.75;7.32;;;;;;;15.25;73.58;101619.84;4838793;29;20498;-69
2021/06/24 00:34:37;;;;;;;18.98;7.68;;;;;;;15.07;73.64;101624.53;4838655;29;20061;-68
2021/06/24 00:37:04;;;;;;;15.40;6.53;;;;;;;15.03;74.42;101620.75;4837768;29;20059;-73
2021/06/24 00:39:32;;;;;;;19.08;7.22;;;;;;;15.15;73.82;101620.16;4837836;29;20054;-70
2021/06/24 00:42:00;;;;;;;24.90;7.85;;;;;;;15.39;72.66;101610.25;4838194;29;20092;-69
2021/06/24 00:44:27;;;;;;;20.00;6.65;;;;;;;15.61;71.98;101614.88;4837527;29;20058;-72
2021/06/24 00:46:56;;;;;;;17.42;6.55;;;;;;;15.87;71.27;101620.44;4838506;29;20498;-76
2021/06/24 00:49:24;;;;;;;19.90;7.05;;;;;;;15.10;73.32;101618.31;4807905;29;20058;-72
2021/06/24 00:51:51;;;;;;;19.02;7.03;;;;;;;15.08;73.96;101622.59;4886000;29;20053;-77
2021/06/24 00:54:19;;;;;;;19.48;6.13;;;;;;;15.19;73.95;101621.94;4837365;29;20065;-76
2021/06/24 00:56:47;;;;;;;18.92;6.25;;;;;;;15.43;73.00;101610.47;4836591;29;20054;-78
2021/06/24 00:59:15;;;;;;;18.42;6.05;;;;;;;15.19;73.45;101615.56;4837344;29;20054;-78
2021/06/24 01:01:43;;;;;;;18.55;6.53;;;;;;;15.01;74.49;101614.69;4838879;29;20502;-78
2021/06/24 01:04:11;;;;;;;20.63;6.57;;;;;;;14.98;74.56;101606.19;4901486;29;20054;-72
2021/06/24 01:06:38;;;;;;;10.85;5.50;;;;;;;15.08;74.12;101608.72;4837991;29;20058;-72
2021/06/24 01:09:05;;;;;;;15.55;6.00;;;;;;;14.92;74.53;101607.50;4838088;29;20069;-70
2021/06/24 01:11:33;;;;;;;17.98;6.05;;;;;;;14.88;75.28;101606.50;4822276;29;20057;-72
2021/06/24 01:14:01;;;;;;;15.57;6.95;;;;;;;15.09;74.45;101604.78;4837286;29;20117;-71
2021/06/24 01:16:29;;;;;;;18.02;5.90;;;;;;;15.33;73.66;101610.72;4822957;29;20054;-73
2021/06/24 01:18:57;;;;;;;20.67;5.68;;;;;;;15.15;73.26;101609.06;4837311;29;20054;-72
2021/06/24 01:21:24;;;;;;;19.63;5.75;;;;;;;15.01;74.00;101600.03;4837503;29;20050;-72
2021/06/24 01:23:52;;;;;;;13.25;6.15;;;;;;;14.74;75.13;101600.25;4837520;29;20058;-75
2021/06/24 01:26:21;;;;;;;16.05;6.05;;;;;;;14.58;75.71;101602.63;4836815;29;20077;-72
2021/06/24 01:28:50;;;;;;;13.93;6.07;;;;;;;14.59;76.36;101607.03;4837705;29;20054;-75
2021/06/24 01:31:19;;;;;;;21.73;6.50;;;;;;;14.79;75.34;101606.47;4838223;29;20049;-71
2021/06/24 01:33:48;;;;;;;14.00;6.00;;;;;;;14.96;74.67;101602.97;4837115;29;20053;-72
2021/06/24 01:36:16;;;;;;;18.33;6.82;;;;;;;15.23;73.50;101599.91;4901124;29;20405;-72
2021/06/24 01:38:45;;;;;;;15.90;6.25;;;;;;;15.08;73.60;101606.72;4885833;29;20065;-71
2021/06/24 01:41:21;;;;;;;19.13;6.30;;;;;;;14.78;75.27;101590.97;4837026;29;20054;-72
2021/06/24 01:43:50;;;;;;;17.52;7.15;;;;;;;14.36;77.24;101592.41;4821953;29;20119;-71
2021/06/24 01:46:18;;;;;;;13.10;5.72;;;;;;;14.73;76.18;101584.75;4836861;29;20054;-70
2021/06/24 01:48:46;;;;;;;18.75;6.95;;;;;;;14.78;76.02;101587.38;4836875;29;20050;-70
2021/06/24 01:51:14;;;;;;;18.00;6.63;;;;;;;14.71;76.07;101587.03;4836633;29;20061;-70
2021/06/24 01:53:42;;;;;;;16.17;6.15;;;;;;;14.68;76.14;101582.13;4836293;29;20076;-71
2021/06/24 01:56:09;;;;;;;13.93;5.90;;;;;;;14.88;75.68;101582.38;4839281;29;20050;-72
2021/06/24 01:58:37;;;;;;;13.80;5.65;;;;;;;14.75;75.13;101577.72;4839175;29;20064;-72
2021/06/24 02:01:04;;;;;;;20.13;6.68;;;;;;;14.82;74.97;101580.06;4903850;29;20049;-70
2021/06/24 02:03:39;;;;;;;18.75;6.43;;;;;;;14.86;75.41;101576.31;4826095;29;20049;-70
2021/06/24 02:06:08;;;;;;;;;;;;;;;14.48;76.59;101575.19;4840215;29;20053;-69
2021/06/24 02:08:37;;;;;;;15.63;6.10;;;;;;;14.31;77.74;101575.88;4903471;29;19965;-69
2021/06/24 02:11:17;;;;;;;;;;;;;;;14.30;77.87;101579.81;4840074;29;20054;-75
2021/06/24 02:13:47;;;;;;;14.15;5.90;;;;;;;14.06;78.87;101562.69;4903553;29;19939;-70
2021/06/24 02:16:15;;;;;;;13.82;6.13;;;;;;;14.24;78.53;101566.38;4904366;29;20061;-71
2021/06/24 02:18:43;;;;;;;16.45;6.28;;;;;;;14.38;77.73;101567.13;4824753;29;20054;-77
2021/06/24 02:21:17;;;;;;;15.00;6.18;;;;;;;14.46;77.25;101563.59;4841756;29;20065;-72
2021/06/24 02:23:57;;;;;;;19.93;6.60;;;;;;;14.42;77.47;101551.47;4839547;29;20408;-72
2021/06/24 02:26:26;;;;;;;22.13;6.18;;;;;;;14.29;77.27;101549.63;4840883;29;20315;-76
2021/06/24 02:29:02;;;;;;;11.68;6.15;;;;;;;14.00;78.46;101563.94;4840693;29;20054;-75
2021/06/24 02:31:31;;;;;;;15.35;6.55;;;;;;;13.94;78.89;101553.31;4874059;29;20046;-74
2021/06/24 02:34:07;;;;;;;16.48;6.25;;;;;;;14.19;77.85;101561.75;4904212;29;20429;-74
2021/06/24 02:37:14;;;;;;;13.90;6.43;;;;;;;14.07;78.09;101560.72;4852250;29;20525;-74
2021/06/24 02:40:00;;;;;;;16.63;6.10;;;;;;;14.34;77.26;101550.31;4842494;29;20062;-73
2021/06/24 02:42:32;;;;;;;17.55;5.82;;;;;;;14.43;77.05;101545.66;4904735;29;20054;-76
2021/06/24 02:45:00;;;;;;;12.97;5.53;;;;;;;14.57;76.79;101540.00;4839876;29;20061;-72
2021/06/24 02:47:29;;;;;;;17.45;5.60;;;;;;;14.72;75.86;101544.28;4825066;29;20061;-75
2021/06/24 02:49:57;;;;;;;15.45;5.72;;;;;;;14.50;76.88;101540.47;4842138;29;20065;-71
2021/06/24 02:52:26;;;;;;;16.15;5.80;;;;;;;14.83;76.23;101546.44;4903406;29;20495;-72
2021/06/24 02:54:54;;;;;;;19.25;5.22;;;;;;;14.54;76.39;101544.22;4840333;29;20054;-77
2021/06/24 02:57:33;;;;;;;15.90;5.50;;;;;;;14.56;76.31;101552.22;4839155;29;20079;-77
2021/06/24 03:00:03;;;;;;;12.32;4.85;;;;;;;14.91;75.88;101548.41;4888240;29;20073;-79
2021/06/24 03:02:31;;;;;;;18.08;5.90;;;;;;;14.61;75.67;101552.06;4823953;29;20057;-72
2021/06/24 03:04:59;;;;;;;21.23;6.38;;;;;;;14.17;77.75;101555.75;4838690;29;20065;-74
2021/06/24 03:07:27;;;;;;;24.85;5.50;;;;;;;14.34;78.46;101550.31;4838527;29;20050;-79
2021/06/24 03:10:22;;;;;;;21.23;5.20;;;;;;;14.48;77.11;101553.81;4842942;29;20230;-73
2021/06/24 03:12:51;;;;;;;;;;;;;;;14.43;77.30;101550.38;4841576;29;20054;-78
2021/06/24 03:15:18;;;;;;;16.90;6.22;;;;;;;14.02;77.60;101549.75;4842067;29;20129;-74
2021/06/24 03:17:47;;;;;;;14.90;5.57;;;;;;;13.85;78.83;101549.66;4839958;29;20069;-69
2021/06/24 03:20:16;;;;;;;12.70;5.38;;;;;;;14.03;78.49;101552.25;4902959;29;20058;-71
2021/06/24 03:22:43;;;;;;;14.50;5.53;;;;;;;13.78;79.88;101552.03;4838817;29;20061;-70
2021/06/24 03:25:12;;;;;;;13.95;5.28;;;;;;;13.76;79.36;101559.84;4839862;29;20053;-67
2021/06/24 03:27:40;;;;;;;16.15;5.53;;;;;;;13.69;80.49;101549.19;4839468;29;20058;-79
2021/06/24 03:30:25;;;;;;;19.00;5.80;;;;;;;13.64;80.19;101560.41;4838155;29;20490;-77
2021/06/24 03:32:53;;;;;;;15.43;5.47;;;;;;;13.43;81.35;101551.75;4839836;29;20494;-72
2021/06/24 03:35:21;;;;;;;15.75;6.13;;;;;;;13.39;81.93;101561.81;4824106;29;20067;-69
2021/06/24 03:37:49;;;;;;;18.83;5.95;;;;;;;13.49;81.35;101560.78;4824274;29;20057;-73
2021/06/24 03:40:18;;;;;;;30.00;6.88;;;;;;;13.35;82.16;101560.78;4837700;29;20062;-69
2021/06/24 03:42:48;;;;;;;13.77;5.55;;;;;;;13.28;82.57;101560.44;4888041;29;20062;-69
2021/06/24 03:45:15;;;;;;;13.77;6.18;;;;;;;13.43;82.11;101560.06;4901664;29;20050;-70
2021/06/24 03:47:45;;;;;;;16.00;6.50;;;;;;;13.54;81.22;101558.72;4824363;29;20053;-70
2021/06/24 03:50:14;;;;;;;15.40;5.93;;;;;;;13.66;81.47;101555.38;4887209;29;20479;-70
2021/06/24 03:52:46;;;;;;;15.82;6.25;;;;;;;13.58;81.35;101551.41;4824243;29;20057;-69
2021/06/24 03:55:16;;;;;;;15.52;6.25;;;;;;;13.63;80.96;101550.47;4838716;29;20054;-73
2021/06/24 03:58:00;;;;;;;18.05;5.65;;;;;;;13.68;80.52;101553.13;4838372;29;20050;-70
2021/06/24 04:00:29;;;;;;;19.45;5.85;;;;;;;13.62;80.67;101554.34;4902973;29;20053;-76
2021/06/24 04:03:07;;;;;;;17.20;5.70;;;;;;;13.60;80.73;101556.63;4840152;29;20038;-75
2021/06/24 04:05:48;;;;;;;16.48;5.57;;;;;;;13.61;81.72;101560.22;4902526;29;20053;-74
2021/06/24 04:08:15;;;;;;;14.43;6.00;;;;;;;13.58;80.67;101565.25;4840063;29;20054;-72
2021/06/24 04:11:12;;;;;;;14.10;5.60;;;;;;;13.43;80.82;101564.78;4815415;29;20490;-71
2021/06/24 04:13:43;;;;;;;13.45;5.55;;;;;;;13.39;81.65;101555.44;4823922;29;20057;-74
2021/06/24 04:16:34;;;;;;;14.52;5.22;;;;;;;13.50;82.07;101562.41;4876389;29;20057;-71
2021/06/24 04:19:03;;;;;;;15.00;5.80;;;;;;;13.42;80.91;101566.72;4861225;29;20522;-70
2021/06/24 04:21:31;;;;;;;13.10;5.72;;;;;;;13.38;81.27;101554.66;4845765;29;20053;-72
2021/06/24 04:24:00;;;;;;;20.73;5.47;;;;;;;13.62;80.72;101559.06;4876907;29;20057;-72
2021/06/24 04:26:27;;;;;;;18.30;5.68;;;;;;;13.73;79.69;101558.53;4861095;29;20165;-74
2021/06/24 04:28:55;;;;;;;12.55;5.35;;;;;;;13.62;80.03;101561.84;4860965;29;20401;-72
2021/06/24 04:31:23;;;;;;;14.60;5.57;;;;;;;13.45;80.11;101568.06;4877241;29;20354;-74
2021/06/24 04:33:50;;;;;;;14.73;5.50;;;;;;;13.58;79.76;101570.78;4863050;29;20052;-74
2021/06/24 04:36:33;;;;;;;14.63;5.45;;;;;;;13.48;80.54;101572.97;4880206;29;20052;-73
2021/06/24 04:39:06;;;;;;;16.83;5.30;;;;;;;13.90;78.66;101566.13;4879374;29;20493;-71
2021/06/24 04:41:34;;;;;;;14.10;5.50;;;;;;;13.59;78.78;101574.38;4876656;29;20053;-74
2021/06/24 04:44:06;;;;;;;14.40;5.72;;;;;;;13.06;80.31;101578.88;4876684;29;20096;-73
2021/06/24 04:46:35;;;;;;;14.83;6.20;;;;;;;13.04;81.35;101583.94;4876839;29;20071;-72
2021/06/24 04:49:06;;;;;;;16.13;5.70;;;;;;;13.18;80.44;101581.97;4845869;29;20144;-80
2021/06/24 04:51:45;;;;;;;14.18;6.10;;;;;;;13.21;81.14;101586.88;4876259;29;20153;-76
2021/06/24 04:54:20;;;;;;;13.90;5.78;;;;;;;13.09;81.37;101584.63;4833875;29;20130;-84
2021/06/24 04:56:49;;;;;;;18.25;6.97;;;;;;;13.05;81.50;101588.31;4837766;29;20053;-74
2021/06/24 04:59:21;;;;;;;19.55;5.80;;;;;;;12.86;82.27;101591.16;4824463;29;20065;-81
2021/06/24 05:02:17;;;;;;;16.90;6.13;;;;;;;12.89;83.07;101586.94;4838901;29;20058;-78
2021/06/24 05:05:23;;;;;;;15.73;6.60;;;;;;;12.79;83.19;101579.69;4791116;29;20461;-82
2021/06/24 05:07:52;;;;;;;14.55;6.20;;;;;;;12.90;82.37;101588.59;4800734;29;20442;-82
2021/06/24 05:10:20;;;;;;;17.48;6.85;;;;;;;12.63;83.31;101583.88;4786216;29;20158;-81
2021/06/24 05:12:48;;;;;;;15.00;7.45;;;;;;;12.75;83.60;101586.97;4800905;29;20073;-74
2021/06/24 05:15:16;;;;;;;16.25;6.35;;;;;;;12.68;83.64;101594.84;4800976;29;20146;-74
2021/06/24 05:17:44;;;;;;;18.77;6.57;;;;;;;12.86;83.15;101588.41;4800803;29;20054;-74
2021/06/24 05:20:12;;;;;;;19.13;6.40;;;;;;;12.94;82.33;101595.13;4785172;29;20069;-68
2021/06/24 05:22:40;;;;;;;22.38;6.45;;;;;;;13.00;82.42;101580.09;4800928;29;20058;-72
2021/06/24 05:25:09;;;;;;;16.17;7.05;;;;;;;13.20;81.95;101588.81;4801606;29;20459;-72
2021/06/24 05:27:37;;;;;;;13.77;6.45;;;;;;;12.70;82.76;101592.59;4800346;29;20539;-74
2021/06/24 05:30:05;;;;;;;14.30;6.93;;;;;;;13.02;83.08;101589.75;4800347;29;20062;-75
2021/06/24 05:32:32;;;;;;;18.15;6.57;;;;;;;13.07;82.16;101581.38;4803170;29;20051;-75
2021/06/24 05:35:00;;;;;;;15.38;6.50;;;;;;;13.36;81.35;101587.34;4789073;29;20514;-73
2021/06/24 05:37:27;;;;;;;14.48;6.80;;;;;;;13.27;80.34;101569.00;4805316;29;20499;-72
2021/06/24 05:39:55;;;;;;;18.73;6.57;;;;;;;13.34;81.60;101578.53;4830188;29;20390;-76
2021/06/24 05:42:23;;;;;;;13.98;6.28;;;;;;;13.17;81.60;101572.84;4840748;29;20058;-71
2021/06/24 05:44:50;;;;;;;20.23;6.85;;;;;;;13.33;79.95;101574.16;4841128;29;20053;-71
2021/06/24 05:47:18;;;;;;;12.13;6.53;;;;;;;13.12;81.09;101578.47;4904402;29;20414;-74
2021/06/24 05:49:45;;;;;;;21.30;7.32;;;;;;;13.06;81.51;101582.47;4842816;29;20410;-76
2021/06/24 05:52:13;;;;;;;18.52;6.55;;;;;;;13.50;80.39;101585.38;4841661;29;20500;-76
2021/06/24 05:54:43;;;;;;;16.08;7.07;;;;;;;13.35;80.32;101582.94;4841360;29;20406;-72
2021/06/24 05:57:10;;;;;;;17.02;6.57;;;;;;;13.17;80.60;101592.19;4840291;29;20410;-70
2021/06/24 05:59:38;;;;;;;11.63;6.93;;;;;;;13.07;81.24;101592.44;4824865;29;20049;-72
2021/06/24 06:02:06;;;;;;;17.00;7.15;;;;;;;12.78;82.32;101596.59;4825810;29;20497;-76
2021/06/24 06:04:33;;;;;;;20.90;7.50;;;;;;;12.96;82.28;101596.50;4842205;29;20080;-70
2021/06/24 06:07:02;;;;;;;16.45;7.07;;;;;;;13.10;81.94;101590.97;4843854;29;20485;-72
2021/06/24 06:09:29;;;;;;;15.60;6.65;;;;;;;12.75;82.49;101600.78;4893011;29;20351;-76
2021/06/24 06:11:57;;;;;;;15.80;7.18;;;;;;;12.62;83.22;101603.53;4845407;29;20058;-77
2021/06/24 06:14:24;;;;;;;15.65;7.50;;;;;;;12.85;82.59;101594.25;4840282;29;20054;-76
2021/06/24 06:16:52;;;;;;;19.30;7.10;;;;;;;12.80;82.62;101599.84;4841916;29;20060;-76
2021/06/24 06:19:19;;;;;;;21.65;8.05;;;;;;;12.77;83.33;101600.47;4840644;29;20065;-71
2021/06/24 06:21:47;;;;;;;19.33;8.52;;;;;;;12.72;83.13;101609.69;4839319;29;20058;-70
2021/06/24 06:24:14;;;;;;;18.30;7.35;;;;;;;12.90;83.30;101610.72;4839683;29;20053;-71
2021/06/24 06:26:47;;;;;;;22.80;7.47;;;;;;;12.77;84.13;101608.78;4840720;29;20038;-71
2021/06/24 06:29:16;;;;;;;17.60;7.53;;;;;;;13.05;83.10;101605.75;4840767;29;20073;-71
2021/06/24 06:31:44;;;;;;;19.67;6.97;;;;;;;13.16;80.88;101606.34;4842019;29;20061;-71
2021/06/24 06:34:11;;;;;;;18.60;7.57;;;;;;;13.09;80.72;101611.47;4841461;29;20088;-73
2021/06/24 06:36:39;;;;;;;14.85;6.97;;;;;;;13.02;80.72;101630.44;4840547;29;20379;-70
2021/06/24 06:39:06;;;;;;;15.30;7.85;;;;;;;12.83;81.59;101615.84;4839705;29;20073;-75
2021/06/24 06:41:34;;;;;;;15.27;8.07;;;;;;;12.89;81.92;101620.13;4839665;29;20061;-70
2021/06/24 06:44:02;;;;;;;17.95;7.63;;;;;;;12.81;81.93;101621.69;4839526;29;20054;-71
2021/06/24 06:46:29;;;;;;;16.35;7.75;;;;;;;12.85;81.54;101619.94;4903824;29;20391;-68
2021/06/24 06:53:33;;;;;;;17.05;7.57;;;;;;;12.85;81.39;101632.97;4841614;29;20471;-74
2021/06/24 06:56:01;;;;;;;23.33;8.68;;;;;;;12.79;81.63;101625.88;4841794;29;20049;-76
2021/06/24 06:58:29;;;;;;;26.05;8.52;;;;;;;12.73;82.19;101627.06;4843055;29;20160;-77
2021/06/24 07:00:56;;;;;;;17.67;8.20;;;;;;;12.96;81.69;101615.84;4841769;29;20064;-77
2021/06/24 07:08:04;;;;;;;20.02;8.50;;;;;;;12.85;81.24;101624.66;4858590;29;20050;-69
2021/06/24 07:10:31;;;;;;;24.48;8.18;;;;;;;13.04;81.48;101623.44;4858183;29;20053;-72
2021/06/24 07:12:59;;;;;;;19.38;8.57;;;;;;;13.11;80.42;101623.84;4842887;29;20130;-74
2021/06/24 07:15:26;;;;;;;16.08;8.15;;;;;;;13.16;80.38;101628.47;4842159;29;20054;-71
2021/06/24 07:17:54;;;;;;;23.02;8.85;;;;;;;13.04;80.66;101630.94;4858232;29;20056;-73
2021/06/24 07:20:22;;;;;;;18.67;7.80;;;;;;;13.28;80.46;101626.84;4841580;29;20049;-74
2021/06/24 07:22:49;;;;;;;15.32;7.85;;;;;;;13.16;79.89;101623.75;4842620;29;20386;-76
2021/06/24 07:25:19;;;;;;;25.02;8.25;;;;;;;13.10;80.22;101626.94;4859828;29;20464;-75
2021/06/24 07:27:47;;;;;;;21.50;7.45;;;;;;;13.11;80.13;101618.31;4860888;29;20060;-74
2021/06/24 07:30:15;;;;;;;23.20;8.60;;;;;;;13.05;80.52;101616.81;4842700;29;20061;-76
2021/06/24 07:32:42;;;;;;;20.50;8.80;;;;;;;13.42;79.80;101624.03;4841698;29;20064;-73
2021/06/24 07:35:10;;;;;;;17.63;7.97;;;;;;;13.51;78.57;101634.03;4858189;29;20049;-78
2021/06/24 07:37:38;;;;;;;21.63;8.18;;;;;;;13.65;77.92;101624.91;4858643;29;20061;-74
2021/06/24 07:40:06;;;;;;;18.55;8.30;;;;;;;13.38;79.01;101628.53;4827354;29;20058;-74
2021/06/24 07:42:34;;;;;;;21.75;8.70;;;;;;;13.43;78.55;101623.72;4857079;29;20073;-72
2021/06/24 07:45:03;;;;;;;26.02;8.35;;;;;;;13.34;79.35;101630.28;4858260;29;20052;-76
2021/06/24 07:47:31;;;;;;;19.70;8.53;;;;;;;13.05;80.38;101630.63;4840836;29;20057;-70
2021/06/24 07:54:25;;;;;;;21.52;8.40;;;;;;;13.22;79.37;101632.75;4838650;29;20050;-70
2021/06/24 07:56:55;;;;;;;20.20;8.10;;;;;;;13.40;79.57;101629.88;4837580;29;20054;-70
2021/06/24 07:59:22;;;;;;;22.98;8.68;;;;;;;13.36;79.03;101634.41;4839294;29;20050;-68
2021/06/24 08:01:50;;;;;;;16.88;8.15;;;;;;;13.28;80.07;101626.84;4839361;29;20066;-68
2021/06/24 08:08:58;;;;;;;21.08;9.30;;;;;;;13.67;78.32;101628.19;4840296;29;20050;-69
2021/06/24 08:11:26;;;;;;;19.38;8.13;;;;;;;13.46;78.82;101625.03;4839100;29;20214;-70
2021/06/24 08:13:53;;;;;;;17.23;8.18;;;;;;;13.43;79.35;101626.50;4840427;29;20046;-69
2021/06/24 08:16:21;;;;;;;20.30;7.43;;;;;;;13.76;78.82;101629.88;4839260;29;20083;-70
2021/06/24 08:18:48;;;;;;;18.10;8.02;;;;;;;13.82;77.56;101625.06;4839515;29;20046;-71
2021/06/24 08:21:16;;;;;;;15.90;7.70;;;;;;;13.66;77.95;101621.81;4840360;29;20080;-71
2021/06/24 08:23:43;;;;;;;18.52;7.05;;;;;;;13.96;77.76;101617.50;4838099;29;20061;-71
2021/06/24 08:26:14;;;;;;;22.50;8.30;;;;;;;13.78;77.14;101622.09;4838617;29;20482;-70
2021/06/24 08:28:42;;;;;;;19.67;7.05;;;;;;;13.89;77.24;101625.44;4836963;29;20531;-75
2021/06/24 08:31:09;;;;;;;19.13;7.15;;;;;;;14.00;76.07;101626.84;4839020;29;20054;-74
2021/06/24 08:33:37;;;;;;;18.10;6.45;;;;;;;14.23;75.75;101631.22;4838339;29;20046;-79
2021/06/24 08:40:33;;;;;;;22.02;6.80;;;;;;;14.09;75.74;101633.25;4838739;29;20409;-77
2021/06/24 08:43:01;;;;;;;14.48;6.30;;;;;;;14.46;75.73;101636.47;4838387;29;20053;-76
2021/06/24 08:45:28;;;;;;;18.17;5.90;;;;;;;14.87;74.91;101633.41;4837770;29;20054;-76
2021/06/24 08:47:57;;;;;;;16.65;6.03;;;;;;;14.74;73.37;101641.84;4838843;29;20065;-76
2021/06/24 08:54:52;;;;;;;14.48;6.82;;;;;;;14.41;73.47;101642.16;4836990;29;20498;-72
2021/06/24 08:57:19;;;;;;;11.57;5.75;;;;;;;14.63;72.93;101638.53;4837527;29;20054;-71
2021/06/24 08:59:47;;;;;;;19.48;6.63;;;;;;;14.88;72.57;101637.00;4837655;29;20049;-71
2021/06/24 09:02:17;;;;;;;17.33;6.20;;;;;;;15.00;72.13;101637.22;4837620;29;20054;-72
2021/06/24 09:09:16;;;;;;;19.30;6.70;;;;;;;15.22;70.72;101634.38;4836871;29;20542;-68
2021/06/24 09:11:46;;;;;;;17.42;6.15;;;;;;;15.31;69.46;101641.56;4823290;29;20058;-69
2021/06/24 09:14:17;;;;;;;16.80;6.03;;;;;;;14.91;71.26;101650.25;4837452;29;20058;-71
2021/06/24 09:16:45;;;;;;;17.25;6.38;;;;;;;14.60;71.31;101645.53;4822547;29;20069;-75
2021/06/24 09:19:17;;;;;;;20.42;6.50;;;;;;;14.90;71.68;101649.44;4838207;29;20057;-70
2021/06/24 09:22:08;;;;;;;14.80;6.05;;;;;;;14.94;70.77;101649.63;4836778;29;20081;-79
2021/06/24 09:24:36;;;;;;;;;;;;;;;15.10;71.28;101643.31;4823836;29;20061;-71
2021/06/24 09:27:36;;;;;;;16.15;6.65;;;;;;;15.38;68.92;101639.16;4838788;29;19925;-72
2021/06/24 09:30:10;;;;;;;17.27;6.30;;;;;;;15.58;68.61;101646.09;4836844;29;20054;-69
2021/06/24 09:32:44;;;;;;;14.57;5.60;;;;;;;15.77;68.21;101644.66;4836554;29;20061;-68
2021/06/24 09:39:39;;;;;;;16.67;5.82;;;;;;;15.37;68.63;101640.28;4838009;29;20058;-69
2021/06/24 09:42:09;;;;;;;15.02;5.82;;;;;;;15.15;69.13;101651.47;4838811;29;20061;-71
2021/06/24 09:44:39;;;;;;;18.00;5.55;;;;;;;14.99;69.95;101650.31;4850993;29;20050;-71
2021/06/24 09:47:26;;;;;;;18.20;5.85;;;;;;;14.97;70.06;101651.75;4836152;29;20050;-71
2021/06/24 09:54:32;;;;;;;13.25;5.88;;;;;;;15.35;68.55;101655.63;4838874;29;20054;-79
2021/06/24 09:57:02;;;;;;;12.75;5.63;;;;;;;15.16;69.35;101655.09;4837616;29;20046;-73
2021/06/24 09:59:32;;;;;;;15.07;6.10;;;;;;;15.50;68.73;101660.75;4823835;29;20050;-77
2021/06/24 10:02:10;;;;;;;13.48;5.80;;;;;;;15.54;68.58;101658.97;4837278;29;20057;-75
2021/06/24 10:04:43;;;;;;;17.10;6.10;;;;;;;15.85;67.54;101651.31;4836034;29;20058;-75
2021/06/24 10:07:13;;;;;;;17.15;6.13;;;;;;;16.24;66.34;101656.72;4837458;29;20057;-76
2021/06/24 10:09:43;;;;;;;16.60;6.32;;;;;;;15.97;66.66;101657.06;4837593;29;20081;-74
2021/06/24 10:12:16;;;;;;;11.55;5.35;;;;;;;15.67;66.82;101667.16;4837667;29;20065;-68
2021/06/24 10:14:44;;;;;;;16.48;6.10;;;;;;;15.61;67.10;101659.31;4836019;29;20077;-73
2021/06/24 10:17:12;;;;;;;12.40;5.65;;;;;;;15.88;66.86;101661.00;4839782;29;20064;-68
2021/06/24 10:19:43;;;;;;;13.75;5.53;;;;;;;16.06;65.00;101665.38;4825330;29;20062;-70
2021/06/24 10:22:17;;;;;;;12.85;5.95;;;;;;;15.52;65.43;101664.84;4839004;29;20065;-69
2021/06/24 10:25:02;;;;;;;13.45;5.32;;;;;;;15.72;65.50;101666.19;4839278;29;20049;-71
2021/06/24 10:27:34;;;;;;;18.20;5.25;;;;;;;15.70;65.64;101676.81;4824532;29;20062;-72
2021/06/24 10:30:21;;;;;;;19.17;5.22;;;;;;;15.90;64.63;101667.84;4826027;29;20057;-66
2021/06/24 10:33:09;;;;;;;16.15;5.30;;;;;;;15.79;64.59;101661.78;4841762;29;20054;-75
2021/06/24 10:35:39;;;;;;;13.90;5.30;;;;;;;15.79;65.32;101658.22;4823676;29;20409;-71
2021/06/24 10:38:08;;;;;;;11.15;5.22;;;;;;;15.94;64.92;101662.44;4839934;29;20092;-69
2021/06/24 10:40:37;;;;;;;13.13;5.67;;;;;;;16.15;64.44;101666.22;4839927;29;20050;-73
2021/06/24 10:43:07;;;;;;;16.75;5.70;;;;;;;16.32;63.42;101666.22;4839053;29;20378;-73
2021/06/24 10:45:35;;;;;;;16.58;5.63;;;;;;;16.59;62.54;101663.09;4902703;29;20050;-66
2021/06/24 10:48:28;;;;;;;17.33;4.88;;;;;;;17.09;62.24;101649.31;4838809;29;20058;-67
2021/06/24 10:55:40;;;;;;;13.30;5.05;;;;;;;17.48;59.84;101641.44;4839836;29;20050;-73
2021/06/24 10:58:11;;;;;;;12.40;4.93;;;;;;;17.15;61.11;101650.78;4824443;29;20061;-77
2021/06/24 11:00:45;;;;;;;9.98;5.05;;;;;;;16.96;61.16;101651.19;4825935;29;20054;-74
2021/06/24 11:03:15;;;;;;;11.63;4.93;;;;;;;16.70;61.53;101644.91;4841368;29;20057;-68
2021/06/24 11:05:48;;;;;;;17.08;5.68;;;;;;;17.12;61.41;101643.88;4823992;29;20509;-73
2021/06/24 11:08:19;;;;;;;16.88;5.32;;;;;;;17.38;60.37;101638.22;4823943;29;20050;-71
2021/06/24 11:10:52;;;;;;;13.90;6.57;;;;;;;17.82;58.80;101637.59;4840140;29;20050;-70
2021/06/24 11:13:38;;;;;;;13.88;4.95;;;;;;;17.76;58.77;101630.59;4839939;29;20410;-69
2021/06/24 11:16:20;;;;;;;20.65;5.43;;;;;;;17.41;59.85;101641.13;4840031;29;20061;-70
2021/06/24 11:18:59;;;;;;;14.93;4.82;;;;;;;17.41;59.99;101635.56;4841156;29;20513;-73
2021/06/24 11:26:05;;;;;;;14.63;4.32;;;;;;;17.70;58.07;101618.84;4840482;29;20041;-78
2021/06/24 11:29:01;;;;;;;12.40;5.30;;;;;;;17.70;58.93;101615.22;4826015;29;20138;-80
2021/06/24 11:31:37;;;;;;;17.92;5.13;;;;;;;17.77;58.16;101613.53;4842444;29;20354;-78
2021/06/24 11:41:03;;;;;;;11.98;4.93;;;;;;;17.81;57.11;101613.66;4842920;29;20502;-78
2021/06/24 11:43:32;;;;;;;9.95;5.32;;;;;;;18.39;55.83;101607.88;4824830;29;20058;-75
2021/06/24 11:46:01;;;;;;;12.32;5.20;;;;;;;19.06;55.30;101608.25;4841270;29;20507;-77
2021/06/24 11:48:31;;;;;;;11.10;5.07;;;;;;;19.07;54.71;101611.84;4825314;29;20374;-76
2021/06/24 12:05:10;;;;;;;9.98;4.40;;;;;;;18.52;54.51;101608.75;4782805;30;20056;-71
2021/06/24 12:12:07;;;;;;;9.27;3.88;;;;;;;18.39;54.19;101607.06;4782693;29;20092;-76
2021/06/24 12:14:36;;;;;;;10.35;4.03;;;;;;;18.45;53.48;101608.50;4782863;29;20063;-78
2021/06/24 12:17:15;;;;;;;9.57;3.75;;;;;;;18.34;53.89;101602.50;4769039;29;20066;-79
2021/06/24 12:20:09;;;;;;;11.03;4.20;;;;;;;18.22;54.50;101601.66;4782869;30;20051;-70
2021/06/24 12:27:19;;;;;;;7.57;3.50;;;;;;;18.41;53.96;101604.78;4783016;30;20055;-79
2021/06/24 12:29:47;;;;;;;9.18;3.60;;;;;;;18.15;54.71;101601.41;4791215;29;20092;-71
2021/06/24 12:32:16;;;;;;;11.35;3.78;;;;;;;18.32;54.68;101595.66;4839065;29;20054;-76
2021/06/24 12:34:45;;;;;;;12.80;4.22;;;;;;;18.59;54.02;101587.50;4838466;29;20058;-78
2021/06/24 12:41:47;;;;;;;9.50;3.80;;;;;;;19.36;51.92;101585.66;4840516;29;20391;-77
2021/06/24 12:44:15;;;;;;;10.88;3.60;;;;;;;19.32;50.99;101579.19;4886326;29;20517;-74
2021/06/24 12:46:42;;;;;;;11.38;4.50;;;;;;;19.33;52.35;101575.22;4822285;29;20058;-71
2021/06/24 12:49:17;;;;;;;11.40;4.15;;;;;;;19.96;50.17;101580.72;4839929;29;20520;-71
2021/06/24 12:51:45;;;;;;;9.57;3.83;;;;;;;19.75;49.97;101582.09;4838756;29;20510;-75
2021/06/24 12:58:45;;;;;;;6.75;3.30;;;;;;;19.42;47.07;101585.06;4917450;29;20487;-72
2021/06/24 13:01:15;;;;;;;6.38;2.97;;;;;;;19.00;47.92;101578.13;4917049;29;20048;-75
2021/06/24 13:03:54;;;;;;;5.32;3.17;;;;;;;19.12;48.71;101575.31;4899035;29;20052;-74
2021/06/24 13:06:26;;;;;;;7.60;3.05;;;;;;;19.30;48.51;101579.50;4883789;29;20515;-79
2021/06/24 13:13:32;;;;;;;7.72;4.32;;;;;;;19.22;49.49;101568.44;4916187;29;20518;-76